createdAt,value
2017-01-31T00:00:47.140Z,0
2017-01-31T00:01:56.563Z,0
2017-01-31T00:03:05.599Z,0
2017-01-31T00:04:15.021Z,0
2017-01-31T00:05:24.205Z,0
2017-01-31T00:06:34.415Z,0
2017-01-31T00:07:43.454Z,0
2017-01-31T00:08:53.637Z,0
2017-01-31T00:10:03.443Z,0
2017-01-31T00:11:12.875Z,0
2017-01-31T00:12:22.781Z,0
2017-01-31T00:13:31.847Z,0
2017-01-31T00:14:41.271Z,0
2017-01-31T00:15:50.700Z,0
2017-01-31T00:17:00.519Z,0
2017-01-31T00:18:09.586Z,0
2017-01-31T00:19:19.067Z,0
2017-01-31T00:20:28.101Z,0
2017-01-31T00:21:37.553Z,0
2017-01-31T00:22:47.495Z,0
2017-01-31T00:23:56.919Z,0
2017-01-31T00:25:06.060Z,0
2017-01-31T00:26:15.949Z,0
2017-01-31T00:27:25.091Z,0
2017-01-31T00:28:34.572Z,0
2017-01-31T00:29:43.645Z,0
2017-01-31T00:30:53.091Z,0
2017-01-31T00:32:02.516Z,0
2017-01-31T00:33:12.337Z,0
2017-01-31T00:34:21.377Z,0
2017-01-31T00:35:31.333Z,0
2017-01-31T00:36:41.520Z,0
2017-01-31T00:37:50.209Z,0
2017-01-31T00:38:59.627Z,0
2017-01-31T00:40:09.049Z,0
2017-01-31T00:41:18.868Z,0
2017-01-31T00:42:28.680Z,0
2017-01-31T00:43:38.870Z,0
2017-01-31T00:44:47.919Z,0
2017-01-31T00:45:57.339Z,0
2017-01-31T00:47:06.760Z,0
2017-01-31T00:48:15.844Z,0
2017-01-31T00:49:24.496Z,0
2017-01-31T00:50:34.298Z,0
2017-01-31T00:51:43.335Z,0
2017-01-31T00:52:52.795Z,0
2017-01-31T00:54:02.977Z,0
2017-01-31T00:55:12.396Z,0
2017-01-31T00:56:21.817Z,0
2017-01-31T00:57:31.238Z,0
2017-01-31T00:58:41.100Z,0
2017-01-31T00:59:51.664Z,0
2017-01-31T01:01:01.086Z,0
2017-01-31T01:02:10.519Z,0
2017-01-31T01:03:20.339Z,0
2017-01-31T01:04:29.395Z,0
2017-01-31T01:05:39.207Z,0
2017-01-31T01:06:48.256Z,0
2017-01-31T01:07:58.068Z,0
2017-01-31T01:09:07.500Z,0
2017-01-31T01:10:17.349Z,0
2017-01-31T01:11:26.780Z,0
2017-01-31T01:12:36.200Z,0
2017-01-31T01:13:46.386Z,0
2017-01-31T01:14:56.275Z,0
2017-01-31T01:16:05.376Z,0
2017-01-31T01:17:15.192Z,0
2017-01-31T01:18:24.631Z,0
2017-01-31T01:19:34.060Z,0
2017-01-31T01:20:43.106Z,0
2017-01-31T01:21:53.292Z,0
2017-01-31T01:23:03.134Z,0
2017-01-31T01:24:12.183Z,0
2017-01-31T01:25:21.987Z,0
2017-01-31T01:26:31.440Z,0
2017-01-31T01:27:40.865Z,0
2017-01-31T01:28:49.511Z,0
2017-01-31T01:29:58.942Z,0
2017-01-31T01:31:08.361Z,0
2017-01-31T01:32:17.782Z,0
2017-01-31T01:33:27.436Z,0
2017-01-31T01:34:37.239Z,0
2017-01-31T01:35:47.805Z,0
2017-01-31T01:36:57.226Z,0
2017-01-31T01:38:06.650Z,0
2017-01-31T01:39:15.685Z,0
2017-01-31T01:40:25.873Z,0
2017-01-31T01:41:34.923Z,0
2017-01-31T01:42:44.722Z,0
2017-01-31T01:43:54.140Z,0
2017-01-31T01:45:03.558Z,0
2017-01-31T01:46:13.745Z,0
2017-01-31T01:47:23.550Z,0
2017-01-31T01:48:32.982Z,0
2017-01-31T01:49:42.017Z,0
2017-01-31T01:50:51.817Z,0
2017-01-31T01:52:00.863Z,0
2017-01-31T01:53:09.902Z,0
2017-01-31T01:54:19.702Z,0
2017-01-31T01:55:29.133Z,0
2017-01-31T01:56:38.936Z,0
2017-01-31T01:57:47.978Z,0
2017-01-31T01:58:56.683Z,0
2017-01-31T02:00:05.715Z,0
2017-01-31T02:01:15.945Z,0
2017-01-31T02:02:25.426Z,0
2017-01-31T02:03:34.492Z,0
2017-01-31T02:04:43.578Z,0
2017-01-31T02:05:52.679Z,0
2017-01-31T02:07:02.867Z,0
2017-01-31T02:08:11.609Z,0
2017-01-31T02:09:20.814Z,0
2017-01-31T02:10:30.269Z,0
2017-01-31T02:11:39.306Z,0
2017-01-31T02:12:48.736Z,0
2017-01-31T02:13:58.152Z,0
2017-01-31T02:15:06.821Z,0
2017-01-31T02:16:15.859Z,0
2017-01-31T02:17:25.656Z,0
2017-01-31T02:18:34.697Z,0
2017-01-31T02:19:44.243Z,0
2017-01-31T02:20:53.663Z,0
2017-01-31T02:22:03.469Z,0
2017-01-31T02:23:13.335Z,0
2017-01-31T02:24:22.818Z,0
2017-01-31T02:25:32.241Z,0
2017-01-31T02:26:41.805Z,0
2017-01-31T02:27:51.153Z,0
2017-01-31T02:29:00.318Z,0
2017-01-31T02:30:09.813Z,0
2017-01-31T02:31:18.860Z,0
2017-01-31T02:32:28.755Z,0
2017-01-31T02:33:38.649Z,0
2017-01-31T02:34:48.461Z,0
2017-01-31T02:35:59.043Z,0
2017-01-31T02:37:08.084Z,0
2017-01-31T02:38:17.142Z,0
2017-01-31T02:39:26.954Z,0
2017-01-31T02:40:36.020Z,0
2017-01-31T02:41:44.711Z,0
2017-01-31T02:42:54.518Z,0
2017-01-31T02:44:04.320Z,0
2017-01-31T02:45:14.127Z,0
2017-01-31T02:46:22.790Z,0
2017-01-31T02:47:32.628Z,0
2017-01-31T02:48:42.063Z,0
2017-01-31T02:49:52.251Z,0
2017-01-31T02:51:01.676Z,0
2017-01-31T02:52:11.113Z,0
2017-01-31T02:53:20.162Z,0
2017-01-31T02:54:30.351Z,0
2017-01-31T02:55:39.775Z,0
2017-01-31T02:56:49.208Z,0
2017-01-31T02:57:58.247Z,0
2017-01-31T02:59:08.051Z,0
2017-01-31T03:00:17.094Z,0
2017-01-31T03:01:26.901Z,0
2017-01-31T03:02:36.323Z,0
2017-01-31T03:03:46.128Z,0
2017-01-31T03:04:56.335Z,0
2017-01-31T03:06:06.139Z,0
2017-01-31T03:07:14.791Z,0
2017-01-31T03:08:24.593Z,0
2017-01-31T03:09:34.408Z,0
2017-01-31T03:10:43.069Z,0
2017-01-31T03:11:52.486Z,0
2017-01-31T03:13:02.309Z,0
2017-01-31T03:14:11.739Z,0
2017-01-31T03:15:21.164Z,0
2017-01-31T03:16:30.598Z,0
2017-01-31T03:17:40.492Z,0
2017-01-31T03:18:49.562Z,0
2017-01-31T03:19:58.609Z,0
2017-01-31T03:21:08.028Z,0
2017-01-31T03:22:17.063Z,0
2017-01-31T03:23:26.517Z,0
2017-01-31T03:24:36.315Z,0
2017-01-31T03:25:45.352Z,0
2017-01-31T03:26:54.011Z,0
2017-01-31T03:28:03.496Z,0
2017-01-31T03:29:12.543Z,0
2017-01-31T03:30:21.968Z,0
2017-01-31T03:31:31.547Z,0
2017-01-31T03:32:40.969Z,0
2017-01-31T03:33:51.223Z,0
2017-01-31T03:35:01.031Z,0
2017-01-31T03:36:11.016Z,0
2017-01-31T03:37:19.673Z,0
2017-01-31T03:38:29.638Z,0
2017-01-31T03:39:38.896Z,0
2017-01-31T03:40:48.002Z,0
2017-01-31T03:41:57.806Z,0
2017-01-31T03:43:07.263Z,0
2017-01-31T03:44:16.324Z,0
2017-01-31T03:45:25.747Z,0
2017-01-31T03:46:35.998Z,0
2017-01-31T03:47:45.083Z,0
2017-01-31T03:48:54.520Z,0
2017-01-31T03:50:04.324Z,0
2017-01-31T03:51:13.372Z,0
2017-01-31T03:52:23.173Z,0
2017-01-31T03:53:32.607Z,0
2017-01-31T03:54:41.640Z,0
2017-01-31T03:55:51.498Z,0
2017-01-31T03:57:00.917Z,0
2017-01-31T03:58:10.386Z,0
2017-01-31T03:59:20.250Z,0
2017-01-31T04:00:30.052Z,0
2017-01-31T04:01:39.921Z,0
2017-01-31T04:02:49.344Z,0
2017-01-31T04:03:59.167Z,0
2017-01-31T04:05:08.619Z,0
2017-01-31T04:06:18.093Z,0
2017-01-31T04:07:27.903Z,0
2017-01-31T04:08:36.936Z,0
2017-01-31T04:09:47.144Z,0
2017-01-31T04:10:56.953Z,0
2017-01-31T04:12:06.767Z,0
2017-01-31T04:13:16.187Z,0
2017-01-31T04:14:25.993Z,0
2017-01-31T04:15:34.646Z,0
2017-01-31T04:16:44.063Z,0
2017-01-31T04:17:52.715Z,0
2017-01-31T04:19:02.515Z,0
2017-01-31T04:20:11.557Z,0
2017-01-31T04:21:21.023Z,0
2017-01-31T04:22:30.062Z,0
2017-01-31T04:23:39.108Z,0
2017-01-31T04:24:48.907Z,0
2017-01-31T04:25:58.328Z,0
2017-01-31T04:27:07.367Z,0
2017-01-31T04:28:16.403Z,0
2017-01-31T04:29:25.441Z,0
2017-01-31T04:30:35.244Z,0
2017-01-31T04:31:45.042Z,0
2017-01-31T04:32:54.463Z,0
2017-01-31T04:34:03.498Z,0
2017-01-31T04:35:13.311Z,0
2017-01-31T04:36:22.348Z,0
2017-01-31T04:37:31.384Z,0
2017-01-31T04:38:41.187Z,0
2017-01-31T04:39:50.228Z,0
2017-01-31T04:40:59.643Z,0
2017-01-31T04:42:09.094Z,0
2017-01-31T04:43:18.135Z,0
2017-01-31T04:44:27.960Z,0
2017-01-31T04:45:37.385Z,0
2017-01-31T04:46:47.574Z,0
2017-01-31T04:47:56.993Z,0
2017-01-31T04:49:06.032Z,0
2017-01-31T04:50:15.833Z,0
2017-01-31T04:51:25.633Z,0
2017-01-31T04:52:35.054Z,0
2017-01-31T04:53:44.092Z,0
2017-01-31T04:54:53.514Z,0
2017-01-31T04:56:02.935Z,0
2017-01-31T04:57:12.738Z,0
2017-01-31T04:58:22.159Z,0
2017-01-31T04:59:31.583Z,0
2017-01-31T05:00:41.011Z,0
2017-01-31T05:01:50.049Z,0
2017-01-31T05:02:59.081Z,0
2017-01-31T05:04:08.502Z,0
2017-01-31T05:05:17.160Z,0
2017-01-31T05:06:27.344Z,0
2017-01-31T05:07:36.381Z,0
2017-01-31T05:08:45.031Z,0
2017-01-31T05:09:54.449Z,0
2017-01-31T05:11:03.485Z,0
2017-01-31T05:12:12.909Z,0
2017-01-31T05:13:22.704Z,0
2017-01-31T05:14:32.118Z,0
2017-01-31T05:15:41.542Z,0
2017-01-31T05:16:51.731Z,0
2017-01-31T05:18:01.153Z,0
2017-01-31T05:19:10.192Z,0
2017-01-31T05:20:19.234Z,0
2017-01-31T05:21:29.038Z,0
2017-01-31T05:22:38.457Z,0
2017-01-31T05:23:47.494Z,0
2017-01-31T05:24:56.970Z,0
2017-01-31T05:26:06.775Z,0
2017-01-31T05:27:16.195Z,0
2017-01-31T05:28:25.232Z,0
2017-01-31T05:29:34.270Z,0
2017-01-31T05:30:43.306Z,0
2017-01-31T05:31:52.722Z,0
2017-01-31T05:33:01.757Z,0
2017-01-31T05:34:11.177Z,0
2017-01-31T05:35:19.829Z,0
2017-01-31T05:36:28.864Z,0
2017-01-31T05:37:38.278Z,0
2017-01-31T05:38:48.078Z,0
2017-01-31T05:39:57.113Z,0
2017-01-31T05:41:06.148Z,0
2017-01-31T05:42:15.949Z,0
2017-01-31T05:43:25.370Z,0
2017-01-31T05:44:34.407Z,0
2017-01-31T05:45:44.215Z,0
2017-01-31T05:46:53.633Z,0
2017-01-31T05:48:02.670Z,0
2017-01-31T05:49:12.087Z,0
2017-01-31T05:50:21.886Z,0
2017-01-31T05:51:30.931Z,0
2017-01-31T05:52:40.348Z,0
2017-01-31T05:53:49.763Z,0
2017-01-31T05:54:59.565Z,0
2017-01-31T05:56:08.986Z,0
2017-01-31T05:57:18.023Z,0
2017-01-31T05:58:27.066Z,0
2017-01-31T05:59:36.493Z,0
2017-01-31T06:00:46.294Z,0
2017-01-31T06:01:56.103Z,0
2017-01-31T06:03:05.930Z,0
2017-01-31T06:04:16.112Z,0
2017-01-31T06:05:25.527Z,0
2017-01-31T06:06:34.979Z,0
2017-01-31T06:07:44.400Z,0
2017-01-31T06:08:53.436Z,0
2017-01-31T06:10:02.864Z,0
2017-01-31T06:11:12.288Z,0
2017-01-31T06:12:21.328Z,0
2017-01-31T06:13:29.981Z,0
2017-01-31T06:14:39.405Z,0
2017-01-31T06:15:48.446Z,0
2017-01-31T06:16:57.487Z,0
2017-01-31T06:18:06.923Z,0
2017-01-31T06:19:17.110Z,0
2017-01-31T06:20:26.541Z,0
2017-01-31T06:21:36.744Z,0
2017-01-31T06:22:46.957Z,0
2017-01-31T06:23:56.758Z,0
2017-01-31T06:25:06.181Z,0
2017-01-31T06:26:15.984Z,0
2017-01-31T06:27:25.414Z,0
2017-01-31T06:28:35.220Z,0
2017-01-31T06:29:43.878Z,0
2017-01-31T06:30:52.918Z,0
2017-01-31T06:32:02.727Z,0
2017-01-31T06:33:11.766Z,0
2017-01-31T06:34:20.475Z,0
2017-01-31T06:35:30.282Z,0
2017-01-31T06:36:40.081Z,0
2017-01-31T06:37:49.496Z,0
2017-01-31T06:38:58.154Z,0
2017-01-31T06:40:07.952Z,0
2017-01-31T06:41:17.756Z,0
2017-01-31T06:42:27.558Z,0
2017-01-31T06:43:36.596Z,0
2017-01-31T06:44:45.630Z,0
2017-01-31T06:45:54.668Z,0
2017-01-31T06:47:04.114Z,0
2017-01-31T06:48:13.533Z,0
2017-01-31T06:49:22.959Z,0
2017-01-31T06:50:32.417Z,0
2017-01-31T06:51:42.215Z,0
2017-01-31T06:52:52.020Z,0
2017-01-31T06:54:01.438Z,0
2017-01-31T06:55:10.096Z,0
2017-01-31T06:56:19.141Z,0
2017-01-31T06:57:28.564Z,0
2017-01-31T06:58:38.781Z,0
2017-01-31T06:59:48.590Z,0
2017-01-31T07:00:58.012Z,0
2017-01-31T07:02:07.814Z,0
2017-01-31T07:03:17.236Z,0
2017-01-31T07:04:26.271Z,0
2017-01-31T07:05:35.691Z,0
2017-01-31T07:06:45.143Z,0
2017-01-31T07:07:54.946Z,5
2017-01-31T07:09:05.133Z,5
2017-01-31T07:10:14.168Z,5
2017-01-31T07:11:23.590Z,5
2017-01-31T07:12:33.397Z,5
2017-01-31T07:13:42.437Z,5
2017-01-31T07:14:51.476Z,10
2017-01-31T07:16:00.896Z,10
2017-01-31T07:17:10.317Z,5
2017-01-31T07:18:19.363Z,5
2017-01-31T07:19:29.167Z,5
2017-01-31T07:20:38.970Z,10
2017-01-31T07:21:48.394Z,10
2017-01-31T07:22:58.188Z,10
2017-01-31T07:24:07.607Z,15
2017-01-31T07:25:17.025Z,15
2017-01-31T07:26:26.108Z,15
2017-01-31T07:27:35.155Z,15
2017-01-31T07:28:44.589Z,15
2017-01-31T07:29:54.009Z,15
2017-01-31T07:31:03.425Z,15
2017-01-31T07:32:12.463Z,20
2017-01-31T07:33:21.923Z,20
2017-01-31T07:34:31.342Z,20
2017-01-31T07:35:40.402Z,25
2017-01-31T07:36:49.054Z,25
2017-01-31T07:37:58.087Z,25
2017-01-31T07:39:07.124Z,30
2017-01-31T07:40:16.168Z,35
2017-01-31T07:41:25.972Z,35
2017-01-31T07:42:35.780Z,30
2017-01-31T07:43:44.818Z,30
2017-01-31T07:44:54.246Z,30
2017-01-31T07:46:03.280Z,30
2017-01-31T07:47:12.701Z,25
2017-01-31T07:48:22.530Z,25
2017-01-31T07:49:31.195Z,25
2017-01-31T07:50:40.233Z,20
2017-01-31T07:51:50.426Z,20
2017-01-31T07:52:59.464Z,20
2017-01-31T07:54:09.272Z,20
2017-01-31T07:55:18.687Z,20
2017-01-31T07:56:28.114Z,25
2017-01-31T07:57:37.544Z,30
2017-01-31T07:58:46.960Z,30
2017-01-31T07:59:56.377Z,30
2017-01-31T08:01:05.797Z,30
2017-01-31T08:02:15.219Z,30
2017-01-31T08:03:24.640Z,30
2017-01-31T08:04:33.304Z,30
2017-01-31T08:05:42.722Z,30
2017-01-31T08:06:52.908Z,30
2017-01-31T08:08:02.712Z,35
2017-01-31T08:09:12.523Z,35
2017-01-31T08:10:21.558Z,35
2017-01-31T08:11:31.357Z,35
2017-01-31T08:12:41.154Z,35
2017-01-31T08:13:50.952Z,40
2017-01-31T08:15:00.753Z,40
2017-01-31T08:16:10.172Z,45
2017-01-31T08:17:20.357Z,45
2017-01-31T08:18:29.775Z,50
2017-01-31T08:19:39.582Z,55
2017-01-31T08:20:49.386Z,55
2017-01-31T08:21:58.807Z,55
2017-01-31T08:23:07.842Z,60
2017-01-31T08:24:17.316Z,60
2017-01-31T08:25:26.347Z,60
2017-01-31T08:26:35.393Z,65
2017-01-31T08:27:44.057Z,65
2017-01-31T08:28:54.627Z,70
2017-01-31T08:30:03.670Z,70
2017-01-31T08:31:12.329Z,70
2017-01-31T08:32:21.747Z,70
2017-01-31T08:33:30.789Z,75
2017-01-31T08:34:40.591Z,80
2017-01-31T08:35:50.016Z,80
2017-01-31T08:36:59.438Z,80
2017-01-31T08:38:09.635Z,85
2017-01-31T08:39:18.295Z,85
2017-01-31T08:40:27.334Z,85
2017-01-31T08:41:36.776Z,85
2017-01-31T08:42:46.594Z,90
2017-01-31T08:43:55.637Z,90
2017-01-31T08:45:05.058Z,90
2017-01-31T08:46:13.721Z,95
2017-01-31T08:47:22.856Z,95
2017-01-31T08:48:31.508Z,95
2017-01-31T08:49:40.546Z,100
2017-01-31T08:50:49.589Z,100
2017-01-31T08:51:59.008Z,100
2017-01-31T08:53:08.817Z,110
2017-01-31T08:54:19.005Z,125
2017-01-31T08:55:28.041Z,135
2017-01-31T08:56:37.475Z,140
2017-01-31T08:57:46.888Z,145
2017-01-31T08:58:55.931Z,145
2017-01-31T09:00:05.733Z,140
2017-01-31T09:01:15.162Z,150
2017-01-31T09:02:24.964Z,165
2017-01-31T09:03:34.765Z,175
2017-01-31T09:04:44.190Z,175
2017-01-31T09:05:53.997Z,175
2017-01-31T09:07:03.418Z,165
2017-01-31T09:08:12.840Z,160
2017-01-31T09:09:21.882Z,165
2017-01-31T09:10:31.693Z,170
2017-01-31T09:11:40.736Z,170
2017-01-31T09:12:50.166Z,170
2017-01-31T09:13:59.601Z,190
2017-01-31T09:15:09.024Z,215
2017-01-31T09:16:18.881Z,220
2017-01-31T09:17:28.307Z,220
2017-01-31T09:18:38.109Z,220
2017-01-31T09:19:47.527Z,225
2017-01-31T09:20:56.565Z,240
2017-01-31T09:22:05.988Z,255
2017-01-31T09:23:15.410Z,260
2017-01-31T09:24:25.604Z,270
2017-01-31T09:25:35.022Z,290
2017-01-31T09:26:44.442Z,295
2017-01-31T09:27:53.874Z,280
2017-01-31T09:29:02.919Z,270
2017-01-31T09:30:12.347Z,260
2017-01-31T09:31:22.153Z,260
2017-01-31T09:32:31.577Z,255
2017-01-31T09:33:40.248Z,275
2017-01-31T09:34:50.061Z,285
2017-01-31T09:36:00.254Z,295
2017-01-31T09:37:09.291Z,305
2017-01-31T09:38:18.718Z,310
2017-01-31T09:39:28.147Z,325
2017-01-31T09:40:37.566Z,330
2017-01-31T09:41:47.366Z,340
2017-01-31T09:42:57.166Z,345
2017-01-31T09:44:06.631Z,355
2017-01-31T09:45:16.818Z,370
2017-01-31T09:46:27.002Z,390
2017-01-31T09:47:36.427Z,410
2017-01-31T09:48:45.855Z,420
2017-01-31T09:49:55.280Z,425
2017-01-31T09:51:04.707Z,430
2017-01-31T09:52:14.900Z,435
2017-01-31T09:53:23.943Z,430
2017-01-31T09:54:33.372Z,435
2017-01-31T09:55:42.802Z,450
2017-01-31T09:56:52.603Z,460
2017-01-31T09:58:01.652Z,455
2017-01-31T09:59:11.076Z,435
2017-01-31T10:00:20.116Z,415
2017-01-31T10:01:29.162Z,395
2017-01-31T10:02:38.201Z,375
2017-01-31T10:03:47.241Z,375
2017-01-31T10:04:56.283Z,350
2017-01-31T10:06:05.708Z,305
2017-01-31T10:07:14.750Z,280
2017-01-31T10:08:24.180Z,275
2017-01-31T10:09:33.987Z,285
2017-01-31T10:10:43.791Z,320
2017-01-31T10:11:52.827Z,355
2017-01-31T10:13:01.866Z,385
2017-01-31T10:14:11.682Z,415
2017-01-31T10:15:21.100Z,435
2017-01-31T10:16:30.156Z,425
2017-01-31T10:17:39.960Z,415
2017-01-31T10:18:49.390Z,420
2017-01-31T10:19:58.432Z,425
2017-01-31T10:21:07.863Z,425
2017-01-31T10:22:17.664Z,425
2017-01-31T10:23:27.466Z,440
2017-01-31T10:24:36.119Z,460
2017-01-31T10:25:45.161Z,465
2017-01-31T10:26:54.209Z,450
2017-01-31T10:28:02.874Z,420
2017-01-31T10:29:12.297Z,410
2017-01-31T10:30:21.724Z,415
2017-01-31T10:31:30.770Z,425
2017-01-31T10:32:40.585Z,430
2017-01-31T10:33:50.012Z,430
2017-01-31T10:34:59.057Z,410
2017-01-31T10:36:08.486Z,385
2017-01-31T10:37:17.528Z,370
2017-01-31T10:38:27.347Z,345
2017-01-31T10:39:37.536Z,335
2017-01-31T10:40:46.195Z,350
2017-01-31T10:41:56.012Z,385
2017-01-31T10:43:05.439Z,405
2017-01-31T10:44:15.245Z,395
2017-01-31T10:45:25.066Z,380
2017-01-31T10:46:34.877Z,375
2017-01-31T10:47:45.110Z,370
2017-01-31T10:48:54.914Z,355
2017-01-31T10:50:04.337Z,345
2017-01-31T10:51:13.782Z,350
2017-01-31T10:52:23.203Z,360
2017-01-31T10:53:32.624Z,355
2017-01-31T10:54:41.693Z,350
2017-01-31T10:55:50.738Z,350
2017-01-31T10:56:59.781Z,350
2017-01-31T10:58:09.591Z,365
2017-01-31T10:59:19.404Z,380
2017-01-31T11:00:28.836Z,395
2017-01-31T11:01:38.263Z,405
2017-01-31T11:02:48.070Z,410
2017-01-31T11:03:57.112Z,400
2017-01-31T11:05:07.307Z,390
2017-01-31T11:06:16.735Z,385
2017-01-31T11:07:26.919Z,365
2017-01-31T11:08:36.730Z,330
2017-01-31T11:09:46.919Z,295
2017-01-31T11:10:55.957Z,270
2017-01-31T11:12:04.633Z,250
2017-01-31T11:13:13.681Z,230
2017-01-31T11:14:23.108Z,215
2017-01-31T11:15:32.152Z,200
2017-01-31T11:16:41.594Z,195
2017-01-31T11:17:51.019Z,195
2017-01-31T11:19:00.829Z,195
2017-01-31T11:20:10.250Z,205
2017-01-31T11:21:20.074Z,210
2017-01-31T11:22:29.169Z,220
2017-01-31T11:23:38.597Z,230
2017-01-31T11:24:48.022Z,245
2017-01-31T11:25:57.445Z,260
2017-01-31T11:27:06.488Z,275
2017-01-31T11:28:15.920Z,285
2017-01-31T11:29:24.960Z,295
2017-01-31T11:30:34.003Z,305
2017-01-31T11:31:43.049Z,320
2017-01-31T11:32:52.473Z,330
2017-01-31T11:34:01.895Z,340
2017-01-31T11:35:11.318Z,330
2017-01-31T11:36:20.361Z,315
2017-01-31T11:37:29.783Z,305
2017-01-31T11:38:39.204Z,295
2017-01-31T11:39:49.010Z,290
2017-01-31T11:40:58.054Z,285
2017-01-31T11:42:07.860Z,280
2017-01-31T11:43:17.290Z,270
2017-01-31T11:44:25.947Z,270
2017-01-31T11:45:35.000Z,280
2017-01-31T11:46:44.046Z,295
2017-01-31T11:47:53.470Z,305
2017-01-31T11:49:02.896Z,310
2017-01-31T11:50:11.551Z,310
2017-01-31T11:51:20.973Z,300
2017-01-31T11:52:30.780Z,295
2017-01-31T11:53:39.822Z,295
2017-01-31T11:54:48.861Z,305
2017-01-31T11:55:59.052Z,295
2017-01-31T11:57:08.475Z,290
2017-01-31T11:58:17.904Z,285
2017-01-31T11:59:26.946Z,290
2017-01-31T12:00:36.760Z,290
2017-01-31T12:01:46.185Z,290
2017-01-31T12:02:55.990Z,280
2017-01-31T12:04:05.413Z,275
2017-01-31T12:05:14.467Z,275
2017-01-31T12:06:23.903Z,270
2017-01-31T12:07:33.325Z,270
2017-01-31T12:08:43.564Z,270
2017-01-31T12:09:52.232Z,275
2017-01-31T12:11:00.889Z,285
2017-01-31T12:12:09.930Z,285
2017-01-31T12:13:18.977Z,290
2017-01-31T12:14:28.413Z,290
2017-01-31T12:15:37.452Z,290
2017-01-31T12:16:47.259Z,300
2017-01-31T12:17:57.066Z,315
2017-01-31T12:19:06.491Z,320
2017-01-31T12:20:15.919Z,330
2017-01-31T12:21:25.340Z,340
2017-01-31T12:22:34.760Z,345
2017-01-31T12:23:44.215Z,330
2017-01-31T12:24:53.637Z,325
2017-01-31T12:26:02.680Z,315
2017-01-31T12:27:12.103Z,310
2017-01-31T12:28:22.290Z,305
2017-01-31T12:29:30.947Z,300
2017-01-31T12:30:40.376Z,295
2017-01-31T12:31:49.797Z,305
2017-01-31T12:32:58.454Z,320
2017-01-31T12:34:07.883Z,320
2017-01-31T12:35:16.928Z,310
2017-01-31T12:36:25.589Z,305
2017-01-31T12:37:34.629Z,305
2017-01-31T12:38:44.434Z,290
2017-01-31T12:39:53.474Z,280
2017-01-31T12:41:02.907Z,290
2017-01-31T12:42:11.951Z,290
2017-01-31T12:43:21.805Z,285
2017-01-31T12:44:31.225Z,280
2017-01-31T12:45:41.413Z,280
2017-01-31T12:46:50.849Z,285
2017-01-31T12:48:00.666Z,285
2017-01-31T12:49:09.709Z,285
2017-01-31T12:50:19.133Z,290
2017-01-31T12:51:28.557Z,290
2017-01-31T12:52:38.362Z,295
2017-01-31T12:53:48.560Z,290
2017-01-31T12:54:57.606Z,280
2017-01-31T12:56:07.036Z,275
2017-01-31T12:57:16.842Z,280
2017-01-31T12:58:25.879Z,280
2017-01-31T12:59:35.686Z,280
2017-01-31T13:00:45.122Z,280
2017-01-31T13:01:54.928Z,280
2017-01-31T13:03:05.126Z,280
2017-01-31T13:04:14.552Z,280
2017-01-31T13:05:24.028Z,280
2017-01-31T13:06:34.214Z,280
2017-01-31T13:07:43.634Z,280
2017-01-31T13:08:53.064Z,280
2017-01-31T13:10:02.485Z,285
2017-01-31T13:11:11.913Z,300
2017-01-31T13:12:21.719Z,315
2017-01-31T13:13:30.760Z,320
2017-01-31T13:14:39.805Z,330
2017-01-31T13:15:49.613Z,345
2017-01-31T13:16:59.430Z,355
2017-01-31T13:18:09.241Z,360
2017-01-31T13:19:18.662Z,360
2017-01-31T13:20:28.473Z,355
2017-01-31T13:21:37.923Z,350
2017-01-31T13:22:46.605Z,345
2017-01-31T13:23:55.658Z,345
2017-01-31T13:25:05.085Z,335
2017-01-31T13:26:14.132Z,325
2017-01-31T13:27:22.796Z,315
2017-01-31T13:28:31.456Z,310
2017-01-31T13:29:40.501Z,305
2017-01-31T13:30:50.699Z,305
2017-01-31T13:32:00.127Z,310
2017-01-31T13:33:09.549Z,310
2017-01-31T13:34:18.593Z,315
2017-01-31T13:35:27.255Z,315
2017-01-31T13:36:36.680Z,325
2017-01-31T13:37:45.726Z,335
2017-01-31T13:38:55.534Z,345
2017-01-31T13:40:05.750Z,365
2017-01-31T13:41:15.173Z,390
2017-01-31T13:42:24.617Z,405
2017-01-31T13:43:34.432Z,415
2017-01-31T13:44:43.482Z,430
2017-01-31T13:45:52.913Z,435
2017-01-31T13:47:02.726Z,420
2017-01-31T13:48:12.915Z,415
2017-01-31T13:49:23.107Z,415
2017-01-31T13:50:32.528Z,400
2017-01-31T13:51:41.960Z,375
2017-01-31T13:52:51.769Z,355
2017-01-31T13:54:01.576Z,345
2017-01-31T13:55:11.412Z,330
2017-01-31T13:56:20.844Z,305
2017-01-31T13:57:30.658Z,290
2017-01-31T13:58:40.467Z,280
2017-01-31T13:59:49.897Z,275
2017-01-31T14:00:58.947Z,265
2017-01-31T14:02:07.616Z,265
2017-01-31T14:03:16.671Z,265
2017-01-31T14:04:25.331Z,270
2017-01-31T14:05:34.385Z,275
2017-01-31T14:06:44.221Z,280
2017-01-31T14:07:53.281Z,270
2017-01-31T14:09:03.175Z,270
2017-01-31T14:10:12.989Z,260
2017-01-31T14:11:22.446Z,260
2017-01-31T14:12:31.871Z,260
2017-01-31T14:13:41.674Z,255
2017-01-31T14:14:51.099Z,250
2017-01-31T14:16:00.521Z,235
2017-01-31T14:17:09.566Z,215
2017-01-31T14:18:18.994Z,200
2017-01-31T14:19:28.799Z,185
2017-01-31T14:20:37.847Z,180
2017-01-31T14:21:46.889Z,185
2017-01-31T14:22:55.551Z,190
2017-01-31T14:24:04.608Z,195
2017-01-31T14:25:13.652Z,200
2017-01-31T14:26:22.316Z,200
2017-01-31T14:27:32.122Z,205
2017-01-31T14:28:42.317Z,205
2017-01-31T14:29:52.514Z,210
2017-01-31T14:31:01.951Z,205
2017-01-31T14:32:11.055Z,195
2017-01-31T14:33:20.484Z,190
2017-01-31T14:34:29.526Z,185
2017-01-31T14:35:38.951Z,185
2017-01-31T14:36:47.995Z,190
2017-01-31T14:37:57.039Z,190
2017-01-31T14:39:06.848Z,195
2017-01-31T14:40:16.683Z,195
2017-01-31T14:41:26.108Z,195
2017-01-31T14:42:35.916Z,190
2017-01-31T14:43:45.344Z,185
2017-01-31T14:44:54.002Z,180
2017-01-31T14:46:03.811Z,170
2017-01-31T14:47:12.468Z,170
2017-01-31T14:48:21.512Z,180
2017-01-31T14:49:30.174Z,195
2017-01-31T14:50:39.594Z,210
2017-01-31T14:51:49.402Z,210
2017-01-31T14:52:59.210Z,200
2017-01-31T14:54:08.254Z,185
2017-01-31T14:55:17.292Z,175
2017-01-31T14:56:27.104Z,170
2017-01-31T14:57:37.293Z,165
2017-01-31T14:58:46.720Z,165
2017-01-31T14:59:56.533Z,165
2017-01-31T15:01:05.958Z,180
2017-01-31T15:02:15.387Z,195
2017-01-31T15:03:24.435Z,190
2017-01-31T15:04:33.483Z,175
2017-01-31T15:05:43.668Z,170
2017-01-31T15:06:53.469Z,165
2017-01-31T15:08:02.511Z,165
2017-01-31T15:09:12.317Z,160
2017-01-31T15:10:21.499Z,165
2017-01-31T15:11:30.539Z,170
2017-01-31T15:12:39.991Z,170
2017-01-31T15:13:49.796Z,160
2017-01-31T15:14:59.224Z,140
2017-01-31T15:16:08.690Z,125
2017-01-31T15:17:18.503Z,120
2017-01-31T15:18:27.922Z,120
2017-01-31T15:19:37.730Z,125
2017-01-31T15:20:46.772Z,125
2017-01-31T15:21:55.817Z,125
2017-01-31T15:23:05.241Z,120
2017-01-31T15:24:14.662Z,115
2017-01-31T15:25:23.320Z,115
2017-01-31T15:26:32.742Z,110
2017-01-31T15:27:42.554Z,105
2017-01-31T15:28:51.976Z,105
2017-01-31T15:30:01.407Z,95
2017-01-31T15:31:10.828Z,85
2017-01-31T15:32:20.642Z,80
2017-01-31T15:33:30.069Z,75
2017-01-31T15:34:39.492Z,75
2017-01-31T15:35:48.966Z,70
2017-01-31T15:36:58.013Z,60
2017-01-31T15:38:07.824Z,55
2017-01-31T15:39:17.246Z,50
2017-01-31T15:40:26.281Z,45
2017-01-31T15:41:35.704Z,45
2017-01-31T15:42:45.139Z,40
2017-01-31T15:43:54.561Z,40
2017-01-31T15:45:03.987Z,40
2017-01-31T15:46:12.644Z,35
2017-01-31T15:47:22.068Z,35
2017-01-31T15:48:31.102Z,35
2017-01-31T15:49:40.931Z,40
2017-01-31T15:50:50.357Z,35
2017-01-31T15:52:00.547Z,35
2017-01-31T15:53:09.980Z,35
2017-01-31T15:54:19.402Z,30
2017-01-31T15:55:28.829Z,30
2017-01-31T15:56:38.256Z,25
2017-01-31T15:57:48.067Z,25
2017-01-31T15:58:57.872Z,25
2017-01-31T16:00:06.917Z,25
2017-01-31T16:01:16.737Z,25
2017-01-31T16:02:26.544Z,20
2017-01-31T16:03:35.591Z,20
2017-01-31T16:04:45.421Z,15
2017-01-31T16:05:55.610Z,15
2017-01-31T16:07:05.416Z,15
2017-01-31T16:08:14.460Z,10
2017-01-31T16:09:24.257Z,10
2017-01-31T16:10:33.296Z,10
2017-01-31T16:11:42.341Z,10
2017-01-31T16:12:52.532Z,10
2017-01-31T16:14:01.957Z,5
2017-01-31T16:15:10.998Z,5
2017-01-31T16:16:20.042Z,5
2017-01-31T16:17:29.465Z,5
2017-01-31T16:18:38.508Z,5
2017-01-31T16:19:47.930Z,5
2017-01-31T16:20:56.974Z,5
2017-01-31T16:22:06.784Z,0
2017-01-31T16:23:16.590Z,0
2017-01-31T16:24:25.664Z,0
2017-01-31T16:25:35.083Z,0
2017-01-31T16:26:44.122Z,0
2017-01-31T16:27:53.545Z,0
2017-01-31T16:29:02.592Z,0
2017-01-31T16:30:12.025Z,0
2017-01-31T16:31:21.480Z,0
2017-01-31T16:32:30.517Z,0